createdAt,value
2018-01-27T00:02:09.558Z,5.70
2018-01-27T00:04:41.556Z,5.70
2018-01-27T00:07:11.922Z,5.70
2018-01-27T00:09:40.383Z,5.80
2018-01-27T00:12:08.794Z,5.80
2018-01-27T00:14:42.679Z,5.80
2018-01-27T00:17:11.060Z,5.70
2018-01-27T00:19:39.540Z,5.70
2018-01-27T00:22:07.803Z,5.80
2018-01-27T00:24:36.177Z,5.80
2018-01-27T00:27:04.564Z,5.80
2018-01-27T00:29:32.963Z,5.80
2018-01-27T00:32:01.344Z,5.80
2018-01-27T00:34:30.488Z,5.90
2018-01-27T00:36:58.868Z,5.90
2018-01-27T00:39:27.295Z,5.90
2018-01-27T00:42:00.171Z,5.80
2018-01-27T00:44:28.613Z,5.80
2018-01-27T00:46:56.976Z,5.80
2018-01-27T00:49:25.351Z,5.80
2018-01-27T00:51:53.726Z,5.80
2018-01-27T00:54:22.816Z,5.90
2018-01-27T00:56:51.227Z,5.80
2018-01-27T00:59:19.597Z,5.80
2018-01-27T01:01:47.961Z,5.80
2018-01-27T01:04:16.029Z,5.80
2018-01-27T01:06:44.398Z,5.80
2018-01-27T01:09:12.781Z,5.90
2018-01-27T01:11:41.151Z,5.90
2018-01-27T01:14:10.425Z,5.80
2018-01-27T01:16:39.581Z,5.80
2018-01-27T01:19:07.940Z,5.80
2018-01-27T01:21:37.083Z,5.90
2018-01-27T01:24:05.296Z,5.90
2018-01-27T01:26:34.516Z,6.00
2018-01-27T01:29:02.886Z,5.90
2018-01-27T01:31:31.253Z,6.00
2018-01-27T01:33:59.632Z,6.00
2018-01-27T01:36:27.684Z,6.00
2018-01-27T01:38:56.816Z,5.80
2018-01-27T01:41:24.583Z,5.90
2018-01-27T01:43:58.577Z,5.80
2018-01-27T01:46:26.955Z,5.90
2018-01-27T01:48:57.566Z,6.00
2018-01-27T01:51:26.719Z,5.90
2018-01-27T01:53:55.128Z,5.90
2018-01-27T01:56:24.388Z,5.70
2018-01-27T01:58:52.739Z,5.70
2018-01-27T02:01:21.109Z,5.70
2018-01-27T02:03:49.748Z,5.80
2018-01-27T02:06:18.111Z,5.80
2018-01-27T02:08:46.532Z,5.90
2018-01-27T02:11:15.678Z,6.00
2018-01-27T02:13:43.384Z,6.00
2018-01-27T02:16:11.763Z,5.90
2018-01-27T02:18:40.214Z,5.90
2018-01-27T02:21:08.643Z,5.90
2018-01-27T02:23:37.851Z,5.90
2018-01-27T02:26:06.279Z,5.90
2018-01-27T02:28:34.656Z,5.90
2018-01-27T02:31:03.029Z,5.80
2018-01-27T02:33:31.432Z,5.70
2018-01-27T02:35:59.803Z,5.70
2018-01-27T02:38:28.175Z,5.70
2018-01-27T02:40:56.371Z,5.80
2018-01-27T02:43:25.584Z,5.80
2018-01-27T02:45:53.998Z,5.80
2018-01-27T02:48:22.365Z,5.80
2018-01-27T02:50:50.726Z,5.80
2018-01-27T02:53:18.921Z,5.90
2018-01-27T02:55:48.962Z,5.80
2018-01-27T02:58:17.347Z,5.70
2018-01-27T03:00:45.742Z,5.50
2018-01-27T03:03:14.110Z,5.50
2018-01-27T03:05:42.493Z,5.50
2018-01-27T03:08:11.337Z,5.50
2018-01-27T03:10:39.697Z,5.30
2018-01-27T03:13:08.090Z,5.30
2018-01-27T03:15:36.468Z,5.30
2018-01-27T03:18:04.846Z,5.10
2018-01-27T03:20:33.327Z,5.00
2018-01-27T03:23:01.720Z,4.90
2018-01-27T03:25:30.100Z,4.90
2018-01-27T03:27:59.251Z,4.90
2018-01-27T03:30:28.411Z,4.80
2018-01-27T03:32:56.853Z,4.80
2018-01-27T03:35:25.220Z,4.80
2018-01-27T03:37:53.656Z,4.70
2018-01-27T03:40:21.843Z,4.60
2018-01-27T03:42:49.888Z,4.50
2018-01-27T03:45:18.280Z,4.50
2018-01-27T03:47:46.651Z,4.40
2018-01-27T03:50:15.027Z,4.40
2018-01-27T03:52:43.435Z,4.40
2018-01-27T03:55:12.577Z,4.40
2018-01-27T03:57:40.278Z,4.40
2018-01-27T04:00:08.686Z,4.30
2018-01-27T04:02:37.057Z,4.20
2018-01-27T04:05:06.196Z,4.10
2018-01-27T04:07:34.592Z,4.10
2018-01-27T04:10:02.968Z,4.00
2018-01-27T04:12:31.334Z,4.00
2018-01-27T04:14:59.732Z,3.90
2018-01-27T04:17:28.118Z,3.80
2018-01-27T04:19:56.562Z,3.80
2018-01-27T04:22:24.956Z,3.90
2018-01-27T04:24:53.319Z,4.00
2018-01-27T04:27:21.695Z,4.00
2018-01-27T04:29:49.915Z,4.00
2018-01-27T04:32:19.043Z,3.90
2018-01-27T04:34:47.406Z,3.90
2018-01-27T04:37:15.798Z,3.90
2018-01-27T04:39:44.179Z,4.00
2018-01-27T04:42:12.547Z,4.20
2018-01-27T04:44:40.931Z,4.20
2018-01-27T04:47:09.303Z,4.20
2018-01-27T04:49:37.676Z,4.30
2018-01-27T04:52:06.086Z,4.30
2018-01-27T04:54:34.447Z,4.30
2018-01-27T04:57:02.812Z,4.30
2018-01-27T04:59:31.969Z,4.20
2018-01-27T05:02:00.339Z,4.10
2018-01-27T05:04:28.707Z,4.10
2018-01-27T05:06:57.084Z,4.10
2018-01-27T05:09:25.463Z,4.00
2018-01-27T05:11:53.829Z,4.00
2018-01-27T05:14:22.218Z,4.10
2018-01-27T05:16:50.595Z,4.10
2018-01-27T05:19:18.963Z,4.20
2018-01-27T05:21:47.372Z,4.30
2018-01-27T05:24:15.741Z,4.30
2018-01-27T05:26:44.110Z,4.40
2018-01-27T05:29:12.530Z,4.40
2018-01-27T05:31:41.664Z,4.40
2018-01-27T05:34:10.044Z,4.40
2018-01-27T05:36:38.436Z,4.60
2018-01-27T05:39:06.812Z,4.70
2018-01-27T05:41:35.178Z,4.70
2018-01-27T05:44:03.563Z,4.60
2018-01-27T05:46:31.963Z,4.40
2018-01-27T05:49:00.344Z,4.30
2018-01-27T05:51:28.740Z,4.20
2018-01-27T05:53:57.100Z,4.20
2018-01-27T05:56:26.235Z,4.20
2018-01-27T05:58:54.530Z,4.30
2018-01-27T06:01:22.751Z,4.20
2018-01-27T06:03:51.132Z,4.40
2018-01-27T06:06:19.522Z,4.40
2018-01-27T06:08:47.710Z,4.50
2018-01-27T06:11:16.868Z,4.60
2018-01-27T06:13:45.691Z,4.60
2018-01-27T06:16:14.844Z,4.70
2018-01-27T06:18:43.028Z,4.70
2018-01-27T06:21:11.231Z,4.70
2018-01-27T06:23:40.188Z,4.70
2018-01-27T06:26:08.229Z,4.70
2018-01-27T06:28:36.616Z,4.70
2018-01-27T06:31:05.115Z,4.70
2018-01-27T06:33:33.484Z,4.70
2018-01-27T06:36:01.877Z,4.70
2018-01-27T06:38:30.433Z,4.60
2018-01-27T06:40:58.811Z,4.70
2018-01-27T06:43:26.873Z,4.70
2018-01-27T06:45:55.252Z,4.70
2018-01-27T06:48:23.642Z,4.70
2018-01-27T06:50:52.036Z,4.70
2018-01-27T06:53:36.295Z,4.60
2018-01-27T06:56:04.088Z,4.50
2018-01-27T06:58:32.496Z,4.50
2018-01-27T07:01:01.681Z,4.50
2018-01-27T07:03:29.883Z,4.50
2018-01-27T07:05:57.911Z,4.50
2018-01-27T07:08:26.279Z,4.50
2018-01-27T07:10:54.042Z,4.50
2018-01-27T07:13:22.419Z,4.50
2018-01-27T07:15:50.791Z,4.40
2018-01-27T07:18:19.205Z,4.50
2018-01-27T07:20:48.174Z,4.50
2018-01-27T07:23:16.579Z,4.50
2018-01-27T07:25:45.735Z,4.50
2018-01-27T07:28:14.094Z,4.50
2018-01-27T07:30:42.470Z,4.50
2018-01-27T07:33:10.915Z,4.60
2018-01-27T07:35:40.051Z,4.50
2018-01-27T07:38:08.418Z,4.50
2018-01-27T07:40:36.807Z,4.60
2018-01-27T07:43:05.276Z,4.70
2018-01-27T07:45:33.643Z,4.60
2018-01-27T07:48:02.029Z,4.60
2018-01-27T07:50:30.395Z,4.60
2018-01-27T07:52:58.760Z,4.60
2018-01-27T07:55:27.256Z,4.60
2018-01-27T07:57:55.611Z,4.60
2018-01-27T08:00:24.804Z,4.50
2018-01-27T08:02:54.029Z,4.40
2018-01-27T08:05:22.433Z,4.40
2018-01-27T08:07:50.827Z,4.40
2018-01-27T08:10:19.220Z,4.40
2018-01-27T08:12:47.601Z,4.30
2018-01-27T08:15:15.977Z,4.30
2018-01-27T08:17:44.439Z,4.40
2018-01-27T08:20:12.803Z,4.40
2018-01-27T08:22:41.180Z,4.50
2018-01-27T08:25:09.572Z,4.60
2018-01-27T08:27:37.943Z,4.70
2018-01-27T08:30:06.335Z,4.70
2018-01-27T08:32:34.807Z,4.70
2018-01-27T08:35:03.381Z,4.70
2018-01-27T08:37:31.275Z,4.70
2018-01-27T08:39:59.676Z,4.70
2018-01-27T08:42:28.823Z,4.90
2018-01-27T08:44:57.209Z,4.80
2018-01-27T08:47:25.623Z,5.00
2018-01-27T08:49:54.002Z,5.00
2018-01-27T08:52:23.126Z,5.00
2018-01-27T08:54:51.507Z,5.00
2018-01-27T08:57:19.903Z,5.10
2018-01-27T08:59:48.272Z,5.10
2018-01-27T09:02:16.667Z,5.20
2018-01-27T09:04:45.078Z,5.30
2018-01-27T09:07:13.447Z,5.40
2018-01-27T09:09:41.829Z,5.50
2018-01-27T09:12:10.200Z,5.60
2018-01-27T09:14:38.573Z,5.60
2018-01-27T09:17:06.991Z,5.70
2018-01-27T09:19:36.174Z,5.70
2018-01-27T09:22:05.304Z,5.70
2018-01-27T09:24:33.705Z,5.70
2018-01-27T09:27:02.079Z,5.70
2018-01-27T09:29:30.460Z,5.80
2018-01-27T09:31:58.881Z,5.90
2018-01-27T09:34:27.256Z,6.00
2018-01-27T09:36:55.637Z,6.00
2018-01-27T09:39:24.818Z,6.10
2018-01-27T09:41:53.270Z,6.00
2018-01-27T09:44:21.641Z,6.10
2018-01-27T09:46:50.042Z,6.30
2018-01-27T09:49:18.431Z,6.30
2018-01-27T09:51:46.811Z,6.40
2018-01-27T09:54:15.203Z,6.50
2018-01-27T09:56:44.370Z,6.60
2018-01-27T09:59:12.744Z,6.60
2018-01-27T10:01:41.136Z,6.70
2018-01-27T10:04:09.704Z,6.80
2018-01-27T10:06:38.071Z,7.00
2018-01-27T10:09:06.184Z,7.10
2018-01-27T10:11:34.749Z,7.40
2018-01-27T10:14:03.218Z,7.60
2018-01-27T10:16:31.603Z,7.90
2018-01-27T10:19:00.162Z,8.10
2018-01-27T10:21:28.515Z,8.30
2018-01-27T10:23:57.663Z,8.50
2018-01-27T10:26:26.063Z,8.50
2018-01-27T10:28:54.431Z,8.70
2018-01-27T10:31:22.826Z,8.70
2018-01-27T10:33:51.224Z,8.90
2018-01-27T10:36:23.206Z,8.80
2018-01-27T10:38:51.593Z,8.80
2018-01-27T10:41:19.972Z,8.90
2018-01-27T10:43:48.432Z,9.00
2018-01-27T10:46:16.799Z,9.20
2018-01-27T10:48:45.031Z,9.30
2018-01-27T10:51:13.448Z,9.50
2018-01-27T10:53:42.571Z,9.80
2018-01-27T10:56:10.931Z,9.80
2018-01-27T10:58:40.088Z,10.20
2018-01-27T11:01:08.451Z,10.20
2018-01-27T11:03:36.853Z,10.20
2018-01-27T11:06:05.251Z,10.20
2018-01-27T11:08:34.387Z,10.50
2018-01-27T11:11:02.759Z,10.50
2018-01-27T11:13:31.156Z,10.50
2018-01-27T11:15:59.338Z,10.60
2018-01-27T11:18:27.725Z,10.80
2018-01-27T11:20:56.132Z,10.60
2018-01-27T11:23:25.260Z,10.70
2018-01-27T11:25:53.638Z,10.70
2018-01-27T11:28:22.073Z,10.90
2018-01-27T11:30:50.438Z,11.00
2018-01-27T11:33:18.475Z,10.90
2018-01-27T11:35:46.948Z,10.80
2018-01-27T11:38:15.315Z,10.90
2018-01-27T11:40:43.690Z,11.20
2018-01-27T11:43:12.068Z,11.30
2018-01-27T11:45:40.437Z,11.60
2018-01-27T11:48:09.959Z,11.50
2018-01-27T11:50:38.164Z,11.50
2018-01-27T11:53:06.344Z,11.60
2018-01-27T11:55:34.857Z,10.60
2018-01-27T11:58:04.020Z,10.60
2018-01-27T12:00:32.387Z,10.60
2018-01-27T12:03:00.565Z,10.60
2018-01-27T12:05:28.955Z,11.20
2018-01-27T12:07:57.322Z,10.90
2018-01-27T12:10:25.714Z,11.50
2018-01-27T12:12:54.124Z,11.70
2018-01-27T12:15:22.411Z,11.70
2018-01-27T12:17:51.357Z,11.80
2018-01-27T12:20:19.783Z,11.90
2018-01-27T12:22:48.227Z,12.00
2018-01-27T12:25:16.425Z,11.60
2018-01-27T12:27:46.146Z,11.50
2018-01-27T12:30:14.187Z,11.60
2018-01-27T12:32:42.589Z,11.30
2018-01-27T12:35:11.737Z,11.10
2018-01-27T12:37:40.156Z,11.10
2018-01-27T12:40:09.281Z,11.10
2018-01-27T12:42:37.689Z,11.10
2018-01-27T12:45:06.056Z,11.20
2018-01-27T12:47:34.421Z,11.30
2018-01-27T12:50:02.793Z,11.20
2018-01-27T12:52:31.157Z,11.00
2018-01-27T12:54:58.857Z,10.70
2018-01-27T12:57:27.246Z,10.70
2018-01-27T12:59:55.609Z,10.80
2018-01-27T13:02:23.967Z,10.80
2018-01-27T13:04:52.360Z,10.70
2018-01-27T13:07:20.725Z,10.60
2018-01-27T13:09:49.162Z,10.80
2018-01-27T13:12:17.573Z,10.80
2018-01-27T13:14:45.955Z,10.70
2018-01-27T13:17:14.447Z,10.70
2018-01-27T13:19:43.963Z,10.30
2018-01-27T13:22:11.993Z,10.30
2018-01-27T13:24:41.511Z,10.40
2018-01-27T13:27:09.938Z,10.40
2018-01-27T13:29:38.303Z,10.40
2018-01-27T13:32:06.669Z,10.40
2018-01-27T13:34:35.073Z,10.30
2018-01-27T13:37:03.435Z,10.30
2018-01-27T13:39:31.795Z,10.30
2018-01-27T13:42:00.260Z,10.30
2018-01-27T13:44:28.623Z,10.50
2018-01-27T13:46:58.123Z,10.70
2018-01-27T13:49:27.274Z,11.10
2018-01-27T13:51:56.499Z,11.10
2018-01-27T13:54:24.863Z,11.50
2018-01-27T13:56:53.303Z,11.60
2018-01-27T13:59:21.668Z,11.80
2018-01-27T14:01:50.052Z,11.80
2018-01-27T14:04:18.719Z,11.60
2018-01-27T14:06:47.848Z,11.30
2018-01-27T14:09:16.219Z,11.30
2018-01-27T14:11:44.593Z,11.10
2018-01-27T14:14:12.974Z,10.80
2018-01-27T14:16:41.334Z,11.00
2018-01-27T14:19:09.772Z,11.20
2018-01-27T14:21:38.135Z,10.90
2018-01-27T14:24:06.503Z,10.20
2018-01-27T14:26:35.684Z,9.80
2018-01-27T14:29:04.043Z,9.80
2018-01-27T14:31:33.218Z,10.00
2018-01-27T14:34:01.668Z,10.00
2018-01-27T14:36:39.930Z,9.80
2018-01-27T14:39:08.317Z,9.60
2018-01-27T14:41:36.682Z,9.30
2018-01-27T14:44:05.068Z,9.20
2018-01-27T14:46:33.487Z,9.10
2018-01-27T14:49:01.858Z,8.90
2018-01-27T14:51:30.075Z,8.80
2018-01-27T14:53:59.244Z,8.60
2018-01-27T14:56:27.601Z,8.50
2018-01-27T14:58:56.017Z,8.40
2018-01-27T15:01:24.398Z,8.30
2018-01-27T15:03:52.779Z,8.20
2018-01-27T15:06:21.143Z,8.20
2018-01-27T15:08:49.511Z,8.10
2018-01-27T15:11:17.871Z,8.10
2018-01-27T15:13:46.232Z,8.00
2018-01-27T15:16:14.621Z,7.90
2018-01-27T15:18:42.979Z,7.80
2018-01-27T15:21:11.522Z,7.70
2018-01-27T15:23:39.915Z,7.70
2018-01-27T15:26:09.052Z,7.60
2018-01-27T15:28:37.408Z,7.60
2018-01-27T15:31:05.784Z,7.60
2018-01-27T15:33:34.143Z,7.50
2018-01-27T15:36:03.378Z,7.40
2018-01-27T15:38:31.803Z,7.40
2018-01-27T15:41:00.170Z,7.30
2018-01-27T15:43:28.534Z,7.30
2018-01-27T15:45:56.991Z,7.20
2018-01-27T15:48:25.364Z,7.20
2018-01-27T15:50:53.392Z,7.10
2018-01-27T15:53:22.571Z,7.00
2018-01-27T15:55:50.937Z,7.00
2018-01-27T15:58:19.291Z,6.90
2018-01-27T16:00:47.671Z,6.90
2018-01-27T16:03:16.032Z,6.80
2018-01-27T16:05:45.156Z,6.70
2018-01-27T16:08:13.535Z,6.70
2018-01-27T16:10:41.899Z,6.70
2018-01-27T16:13:10.272Z,6.70
2018-01-27T16:15:38.660Z,6.60
2018-01-27T16:18:07.013Z,6.60
2018-01-27T16:20:36.174Z,6.40
2018-01-27T16:23:04.572Z,6.40
2018-01-27T16:25:33.715Z,6.30
2018-01-27T16:28:02.076Z,6.30
2018-01-27T16:30:30.460Z,6.30
2018-01-27T16:32:58.819Z,6.20
2018-01-27T16:35:26.874Z,6.10
2018-01-27T16:37:55.867Z,6.10
2018-01-27T16:40:24.243Z,6.10
2018-01-27T16:42:53.401Z,6.00
2018-01-27T16:45:21.787Z,6.00
2018-01-27T16:47:50.155Z,6.00
2018-01-27T16:50:18.612Z,5.90
2018-01-27T16:52:46.988Z,5.90
2018-01-27T16:55:15.346Z,5.90
2018-01-27T16:57:44.470Z,5.90
2018-01-27T17:00:12.851Z,5.90
2018-01-27T17:02:41.224Z,5.80
2018-01-27T17:05:09.602Z,5.80
2018-01-27T17:07:37.984Z,5.80
2018-01-27T17:10:06.470Z,5.80
2018-01-27T17:12:34.843Z,5.70
2018-01-27T17:15:03.231Z,5.70
2018-01-27T17:17:31.603Z,5.70
2018-01-27T17:19:59.963Z,5.70
2018-01-27T17:22:28.364Z,5.70
2018-01-27T17:24:56.760Z,5.60
2018-01-27T17:27:25.128Z,5.60
2018-01-27T17:29:53.532Z,5.60
2018-01-27T17:32:21.971Z,5.60
2018-01-27T17:34:50.472Z,5.60
2018-01-27T17:37:18.846Z,5.60
2018-01-27T17:39:47.215Z,5.50
2018-01-27T17:42:15.396Z,5.50
2018-01-27T17:44:43.786Z,5.50
2018-01-27T17:47:12.167Z,5.40
2018-01-27T17:49:41.326Z,5.50
2018-01-27T17:52:09.716Z,5.40
2018-01-27T17:54:38.095Z,5.40
2018-01-27T17:57:06.309Z,5.40
2018-01-27T17:59:34.699Z,5.40
2018-01-27T18:02:03.638Z,5.40
2018-01-27T18:04:32.189Z,5.40
2018-01-27T18:09:29.772Z,5.40
2018-01-27T18:12:00.309Z,5.40
2018-01-27T18:14:28.710Z,5.30
2018-01-27T18:16:57.068Z,5.30
2018-01-27T18:19:25.521Z,5.30
2018-01-27T18:21:54.663Z,5.30
2018-01-27T18:24:23.022Z,5.30
2018-01-27T18:26:51.389Z,5.30
2018-01-27T18:29:19.788Z,5.30
2018-01-27T18:31:48.179Z,5.30
2018-01-27T18:34:18.333Z,5.30
2018-01-27T18:36:47.876Z,5.30
2018-01-27T18:39:16.243Z,5.30
2018-01-27T18:41:45.398Z,5.30
2018-01-27T18:44:13.881Z,5.30
2018-01-27T18:46:42.268Z,5.30
2018-01-27T18:49:10.635Z,5.30
2018-01-27T18:51:39.012Z,5.30
2018-01-27T18:54:07.376Z,5.30
2018-01-27T18:56:41.505Z,5.30
2018-01-27T18:59:09.912Z,5.30
2018-01-27T19:01:39.267Z,5.30
2018-01-27T19:04:07.701Z,5.30
2018-01-27T19:06:36.087Z,5.30
2018-01-27T19:09:05.357Z,5.30
2018-01-27T19:11:33.714Z,5.30
2018-01-27T19:14:02.119Z,5.30
2018-01-27T19:16:30.512Z,5.30
2018-01-27T19:18:59.633Z,5.30
2018-01-27T19:21:27.991Z,5.20
2018-01-27T19:23:57.154Z,5.20
2018-01-27T19:26:25.547Z,5.20
2018-01-27T19:28:53.260Z,5.20
2018-01-27T19:31:21.737Z,5.20
2018-01-27T19:33:49.956Z,5.20
2018-01-27T19:36:18.312Z,5.30
2018-01-27T19:38:46.791Z,5.30
2018-01-27T19:41:16.028Z,5.30
2018-01-27T19:43:44.526Z,5.30
2018-01-27T19:46:13.079Z,5.30
2018-01-27T19:48:41.255Z,5.30
2018-01-27T19:51:09.619Z,5.30
2018-01-27T19:53:38.026Z,5.40
2018-01-27T19:56:07.158Z,5.40
2018-01-27T19:58:35.522Z,5.40
2018-01-27T20:01:03.706Z,5.40
2018-01-27T20:03:32.078Z,5.50
2018-01-27T20:06:00.450Z,5.50
2018-01-27T20:08:28.826Z,5.50
2018-01-27T20:10:57.175Z,5.60
2018-01-27T20:13:26.308Z,5.60
2018-01-27T20:15:54.684Z,5.60
2018-01-27T20:18:23.036Z,5.60
2018-01-27T20:20:52.163Z,5.60
2018-01-27T20:23:20.554Z,5.60
2018-01-27T20:25:48.917Z,5.60
2018-01-27T20:28:18.431Z,5.60
2018-01-27T20:30:46.811Z,5.70
2018-01-27T20:33:15.206Z,5.70
2018-01-27T20:35:43.748Z,5.70
2018-01-27T20:38:12.140Z,5.80
2018-01-27T20:40:40.521Z,5.80
2018-01-27T20:43:08.923Z,5.80
2018-01-27T20:45:37.345Z,5.80
2018-01-27T20:48:06.485Z,5.80
2018-01-27T20:50:34.663Z,5.70
2018-01-27T20:53:03.068Z,5.80
2018-01-27T20:55:31.446Z,5.70
2018-01-27T20:57:59.821Z,5.70
2018-01-27T21:00:28.071Z,5.70
2018-01-27T21:02:56.968Z,5.80
2018-01-27T21:05:27.412Z,5.80
2018-01-27T21:07:55.960Z,5.80
2018-01-27T21:10:24.334Z,5.80
2018-01-27T21:12:54.262Z,5.80
2018-01-27T21:15:27.223Z,5.80
2018-01-27T21:17:55.631Z,5.80
2018-01-27T21:20:24.015Z,5.80
2018-01-27T21:22:52.375Z,5.80
2018-01-27T21:25:20.767Z,5.80
2018-01-27T21:27:49.131Z,5.80
2018-01-27T21:30:17.487Z,5.80
2018-01-27T21:32:45.878Z,5.80
2018-01-27T21:35:14.235Z,5.80
2018-01-27T21:37:43.362Z,5.90
2018-01-27T21:40:11.762Z,5.90
2018-01-27T21:42:40.123Z,5.90
2018-01-27T21:45:08.495Z,5.90
2018-01-27T21:47:36.905Z,5.90
2018-01-27T21:50:05.309Z,5.90
2018-01-27T21:52:34.440Z,5.90
2018-01-27T21:55:02.833Z,5.90
2018-01-27T21:57:31.233Z,5.90
2018-01-27T21:59:59.605Z,5.80
2018-01-27T22:02:28.003Z,5.80
2018-01-27T22:04:57.150Z,5.80
2018-01-27T22:07:25.566Z,5.80
2018-01-27T22:09:53.948Z,5.80
2018-01-27T22:12:22.327Z,5.80
2018-01-27T22:14:50.705Z,5.90
2018-01-27T22:17:19.102Z,5.90
2018-01-27T22:19:47.647Z,5.90
2018-01-27T22:22:16.012Z,5.90
2018-01-27T22:24:44.394Z,5.80
2018-01-27T22:27:13.527Z,5.90
2018-01-27T22:29:41.891Z,5.90
2018-01-27T22:32:10.295Z,5.80
2018-01-27T22:34:38.658Z,5.80
2018-01-27T22:37:07.025Z,5.80
2018-01-27T22:39:35.420Z,5.80
2018-01-27T22:42:04.932Z,5.60
2018-01-27T22:44:33.296Z,5.50
2018-01-27T22:47:01.872Z,5.40
2018-01-27T22:49:30.247Z,5.20
2018-01-27T22:51:58.616Z,5.10
2018-01-27T22:54:26.999Z,5.00
2018-01-27T22:56:55.364Z,5.00
2018-01-27T22:59:23.737Z,4.90
2018-01-27T23:01:52.117Z,4.80
2018-01-27T23:04:20.495Z,4.60
2018-01-27T23:06:48.858Z,4.60
2018-01-27T23:09:17.250Z,4.50
2018-01-27T23:11:46.737Z,4.50
2018-01-27T23:14:17.707Z,4.40
2018-01-27T23:16:46.057Z,4.40
2018-01-27T23:19:14.415Z,4.40
2018-01-27T23:21:43.571Z,4.40
2018-01-27T23:24:11.950Z,4.40
2018-01-27T23:26:40.314Z,4.40
2018-01-27T23:29:08.699Z,4.40
2018-01-27T23:31:37.059Z,4.40
2018-01-27T23:34:06.550Z,4.40
2018-01-27T23:36:36.078Z,4.40
2018-01-27T23:39:03.603Z,4.40
2018-01-27T23:41:32.032Z,4.40
2018-01-27T23:44:01.180Z,4.40
2018-01-27T23:46:29.535Z,4.40
2018-01-27T23:48:58.666Z,4.30
2018-01-27T23:51:27.049Z,4.30
2018-01-27T23:53:55.406Z,4.30
2018-01-27T23:56:23.771Z,4.30
2018-01-27T23:58:52.255Z,4.30
